Lihue, HI (96766)

8:16 AM HST on August 04, 2015 (GMT -1000)
Puupilo | | Change Station
CLOSE
Current Station
Personal Weather Station
Location: Kapaa, HI
Elevation: 469 ft
Nearby Weather Stations

Elev 469 ft 22.06 °N, 159.39 °W | Updated 10 minutes ago

Partly Cloudy
Partly Cloudy
79.3 °F
Feels Like 83 °F
N
2.2
Wind Variable Wind from NNE

Today
High -- | Low -- °F
--% Chance of Precip.
Yesterday
High -- | Low -- °F
Precip. -- in
6:11 AM 7:15 PM
Waning Gibbous, 75% visible
Pressure 29.88 in
Visibility 10.0 miles
Clouds Few 3400 ft
Heat Index 83 °F
Dew Point 73 °F
Humidity 82%
Rainfall 0.02 in
Snow Depth Not available.
UV 2 out of 12
Pollen Not available.
Air Quality Not available.
Flu Activity Not available.
METAR PHLI 041753Z 35008KT 10SM FEW034 27/23 A2989 RMK AO2 RAB18E27 SLP119 P0000 60000 T02670228 10267 20233 51005

More Conditions Fewer Conditions

Pressure 29.88 in
Visibility 10.0 miles
Clouds Few 3400 ft
Heat Index 83 °F
Dew Point 73 °F
Humidity 82%
Rainfall 0.02 in
Snow Depth Not available.
UV 2 out of 12
Pollen Not available.
Air Quality Not available.
Flu Activity Not available.
METAR PHLI 041753Z 35008KT 10SM FEW034 27/23 A2989 RMK AO2 RAB18E27 SLP119 P0000 60000 T02670228 10267 20233 51005

More Conditions Fewer Conditions

10-Day Weather Forecast

×

Almanac

Astronomy

Aug. 04, 2015 Rise Set
Actual Time
Civil Twilight
Nautical Twilight
Astronomical Twilight
Moon
Length of Visible Light
Length of Day
Tomorrow will be .
, % of the Moon is Illuminated

Today's Extremes

State Highs State Lows

Community

WunderPhotos

Upload Photos

1,843,935 photos uploaded!

WunderBlogs® & News

Nearby

Air Quality

  Air Quality AQ Index Pollutant
Not available.

Snow Depth

Station Depth Elevation

Earthquake Activity

City Distance Mag. Time & Date
Minimum magnitude displayed is 2.5.

Coastal Water Temperatures

Place Temperature

Stations

Nearby Weather Stations

Station Location Temp. Windchill Dew Point Humidity Wind Precip. Elev Updated Type